Time,TemperatureF,DewpointF,PressureIn,WindDirection,WindDirectionDegrees,WindSpeedMPH,WindSpeedGustMPH,Humidity,HourlyPrecipIn,Conditions,Clouds,dailyrainin,SoftwareType,DateUTC
2013-04-12 00:02:00,63.0,55.0,29.98,North,0,0.0,0.0,76,0.00,,,0.00,,2013-04-11 21:02:00,
2013-04-12 00:11:00,63.0,55.0,29.98,North,0,0.0,0.0,76,0.00,,,0.00,,2013-04-11 21:11:00,
2013-04-12 00:22:00,62.0,55.0,29.98,North,0,0.0,0.0,78,0.00,,,0.00,,2013-04-11 21:22:00,
2013-04-12 00:32:00,62.0,55.0,29.98,North,0,0.0,0.0,78,0.00,,,0.00,,2013-04-11 21:32:00,
2013-04-12 00:42:00,62.0,55.0,29.98,North,0,0.0,0.0,78,0.00,,,0.00,,2013-04-11 21:42:00,
2013-04-12 00:52:00,62.0,55.0,29.98,North,0,0.0,0.0,78,0.00,,,0.00,,2013-04-11 21:52:00,
2013-04-12 01:02:00,62.0,55.0,29.98,North,0,0.0,0.0,79,0.00,,,0.00,,2013-04-11 22:02:00,
2013-04-12 01:13:00,62.0,55.0,29.98,North,0,0.0,0.0,79,0.00,,,0.00,,2013-04-11 22:13:00,
2013-04-12 01:22:00,62.0,55.0,29.97,North,0,0.0,0.0,79,0.00,,,0.00,,2013-04-11 22:22:00,
2013-04-12 01:32:00,61.0,54.0,29.97,North,0,0.0,0.0,79,0.00,,,0.00,,2013-04-11 22:32:00,
2013-04-12 01:43:00,61.0,54.0,29.97,North,0,0.0,0.0,79,0.00,,,0.00,,2013-04-11 22:43:00,
2013-04-12 01:52:00,61.0,55.0,29.97,North,0,0.0,0.0,80,0.00,,,0.00,,2013-04-11 22:52:00,
2013-04-12 02:03:00,61.0,55.0,29.98,North,0,0.0,0.0,81,0.00,,,0.00,,2013-04-11 23:03:00,
2013-04-12 02:11:00,61.0,55.0,29.98,North,0,0.0,0.0,81,0.00,,,0.00,,2013-04-11 23:11:00,
2013-04-12 02:22:00,61.0,55.0,29.97,North,0,0.0,0.0,82,0.00,,,0.00,,2013-04-11 23:22:00,
2013-04-12 02:32:00,61.0,55.0,29.97,NE,53,0.0,1.0,82,0.00,,,0.00,,2013-04-11 23:32:00,
2013-04-12 02:42:00,61.0,55.0,29.97,NE,53,0.0,1.0,82,0.00,,,0.00,,2013-04-11 23:42:00,
2013-04-12 02:52:00,61.0,55.0,29.96,North,0,0.0,0.0,82,0.00,,,0.00,,2013-04-11 23:52:00,
2013-04-12 03:02:00,61.0,55.0,29.96,North,0,0.0,0.0,82,0.00,,,0.00,,2013-04-12 00:02:00,
2013-04-12 03:11:00,61.0,55.0,29.96,North,0,0.0,0.0,82,0.00,,,0.00,,2013-04-12 00:11:00,
2013-04-12 03:21:00,61.0,56.0,29.96,North,0,0.0,0.0,83,0.00,,,0.00,,2013-04-12 00:21:00,
2013-04-12 03:32:00,60.0,55.0,29.95,North,0,0.0,0.0,83,0.00,,,0.00,,2013-04-12 00:32:00,
2013-04-12 03:42:00,60.0,55.0,29.95,North,0,0.0,0.0,83,0.00,,,0.00,,2013-04-12 00:42:00,
2013-04-12 03:52:00,60.0,54.0,29.95,North,0,0.0,0.0,81,0.00,,,0.00,,2013-04-12 00:52:00,
2013-04-12 04:02:00,60.0,54.0,29.95,North,0,0.0,0.0,80,0.00,,,0.00,,2013-04-12 01:02:00,
2013-04-12 04:11:00,60.0,54.0,29.95,North,0,0.0,0.0,80,0.00,,,0.00,,2013-04-12 01:11:00,
2013-04-12 04:22:00,60.0,53.0,29.95,North,0,0.0,0.0,79,0.00,,,0.00,,2013-04-12 01:22:00,
2013-04-12 04:32:00,60.0,53.0,29.95,North,0,0.0,0.0,77,0.00,,,0.00,,2013-04-12 01:32:00,
2013-04-12 04:42:00,60.0,53.0,29.95,North,0,0.0,0.0,77,0.00,,,0.00,,2013-04-12 01:42:00,
2013-04-12 04:52:00,59.0,51.0,29.95,NE,46,0.0,0.0,76,0.00,,,0.00,,2013-04-12 01:52:00,
2013-04-12 05:02:00,59.0,51.0,29.94,North,0,0.0,0.0,76,0.00,,,0.00,,2013-04-12 02:02:00,
2013-04-12 05:12:00,59.0,51.0,29.94,North,0,0.0,0.0,76,0.00,,,0.00,,2013-04-12 02:12:00,
2013-04-12 05:22:00,59.0,51.0,29.94,North,0,0.0,0.0,75,0.00,,,0.00,,2013-04-12 02:22:00,
2013-04-12 05:32:00,59.0,51.0,29.95,North,0,0.0,0.0,75,0.00,,,0.00,,2013-04-12 02:32:00,
2013-04-12 05:42:00,59.0,51.0,29.95,North,0,0.0,0.0,75,0.00,,,0.00,,2013-04-12 02:42:00,
2013-04-12 05:52:00,59.0,51.0,29.94,North,0,0.0,0.0,76,0.00,,,0.00,,2013-04-12 02:52:00,
2013-04-12 06:01:00,59.0,51.0,29.94,North,0,0.0,0.0,76,0.00,,,0.00,,2013-04-12 03:01:00,
2013-04-12 06:11:00,59.0,51.0,29.94,North,0,0.0,0.0,76,0.00,,,0.00,,2013-04-12 03:11:00,
2013-04-12 06:21:00,58.0,50.0,29.94,North,0,0.0,0.0,76,0.00,,,0.00,,2013-04-12 03:21:00,
2013-04-12 06:33:00,58.0,50.0,29.94,North,0,0.0,0.0,76,0.00,,,0.00,,2013-04-12 03:33:00,
2013-04-12 06:43:00,58.0,50.0,29.94,North,0,0.0,0.0,76,0.00,,,0.00,,2013-04-12 03:43:00,
2013-04-12 06:52:00,58.0,51.0,29.94,North,0,0.0,0.0,77,0.00,,,0.00,,2013-04-12 03:52:00,
2013-04-12 07:02:00,58.0,50.0,29.95,North,0,0.0,0.0,76,0.00,,,0.00,,2013-04-12 04:02:00,
2013-04-12 07:12:00,58.0,50.0,29.95,North,0,0.0,0.0,76,0.00,,,0.00,,2013-04-12 04:12:00,
2013-04-12 07:22:00,58.0,50.0,29.95,NE,45,0.0,0.0,76,0.00,,,0.00,,2013-04-12 04:22:00,
2013-04-12 07:33:00,58.0,50.0,29.95,NE,45,0.0,2.0,75,0.00,,,0.00,,2013-04-12 04:33:00,
2013-04-12 07:42:00,58.0,50.0,29.95,NE,45,0.0,2.0,75,0.00,,,0.00,,2013-04-12 04:42:00,
2013-04-12 07:52:00,58.0,50.0,29.96,North,0,0.0,0.0,76,0.00,,,0.00,,2013-04-12 04:52:00,
2013-04-12 08:02:00,58.0,50.0,29.96,NE,45,0.0,1.0,75,0.00,,,0.00,,2013-04-12 05:02:00,
2013-04-12 08:11:00,58.0,50.0,29.96,NE,45,0.0,1.0,75,0.00,,,0.00,,2013-04-12 05:11:00,
2013-04-12 08:22:00,59.0,50.0,29.97,North,0,0.0,0.0,73,0.00,,,0.00,,2013-04-12 05:22:00,
2013-04-12 08:32:00,63.0,51.0,29.98,NE,45,1.0,1.0,66,0.00,,,0.00,,2013-04-12 05:32:00,
2013-04-12 08:42:00,63.0,51.0,29.98,NE,45,1.0,1.0,66,0.00,,,0.00,,2013-04-12 05:42:00,
2013-04-12 08:52:00,68.0,54.0,29.98,NE,45,0.0,0.0,62,0.00,,,0.00,,2013-04-12 05:52:00,
2013-04-12 09:02:00,70.0,53.0,29.98,ESE,106,0.0,2.0,54,0.00,,,0.00,,2013-04-12 06:02:00,
2013-04-12 09:11:00,70.0,53.0,29.98,ESE,106,0.0,2.0,54,0.00,,,0.00,,2013-04-12 06:11:00,
2013-04-12 09:22:00,69.0,52.0,29.98,NW,304,0.0,2.0,55,0.00,,,0.00,,2013-04-12 06:22:00,
2013-04-12 09:32:00,66.0,51.0,29.98,WSW,242,1.0,2.0,59,0.00,,,0.00,,2013-04-12 06:32:00,
2013-04-12 09:42:00,66.0,51.0,29.98,WSW,242,1.0,2.0,59,0.00,,,0.00,,2013-04-12 06:42:00,
2013-04-12 09:52:00,70.0,52.0,29.99,ENE,64,1.0,2.0,53,0.00,,,0.00,,2013-04-12 06:52:00,
2013-04-12 10:01:00,69.0,52.0,30.00,West,261,2.0,3.0,54,0.00,,,0.00,,2013-04-12 07:01:00,
2013-04-12 10:11:00,69.0,52.0,30.00,West,261,2.0,3.0,54,0.00,,,0.00,,2013-04-12 07:11:00,
2013-04-12 10:22:00,68.0,52.0,30.00,WSW,256,3.0,3.0,56,0.00,,,0.00,,2013-04-12 07:22:00,
2013-04-12 10:32:00,69.0,52.0,30.00,West,270,3.0,3.0,54,0.00,,,0.00,,2013-04-12 07:32:00,
2013-04-12 10:41:00,69.0,52.0,30.00,West,270,3.0,3.0,54,0.00,,,0.00,,2013-04-12 07:41:00,
2013-04-12 10:52:00,69.0,52.0,30.01,WSW,254,3.0,3.0,55,0.00,,,0.00,,2013-04-12 07:52:00,
2013-04-12 11:02:00,68.0,52.0,30.01,West,264,3.0,4.0,56,0.00,,,0.00,,2013-04-12 08:02:00,
2013-04-12 11:11:00,68.0,52.0,30.01,West,264,3.0,4.0,56,0.00,,,0.00,,2013-04-12 08:11:00,
2013-04-12 11:22:00,68.0,52.0,30.01,SW,229,3.0,6.0,57,0.00,,,0.00,,2013-04-12 08:22:00,
2013-04-12 11:32:00,67.0,53.0,30.01,West,280,4.0,6.0,61,0.00,,,0.00,,2013-04-12 08:32:00,
2013-04-12 11:42:00,67.0,53.0,30.01,West,280,4.0,6.0,61,0.00,,,0.00,,2013-04-12 08:42:00,
2013-04-12 11:52:00,66.0,53.0,30.01,WNW,282,5.0,9.0,64,0.00,,,0.00,,2013-04-12 08:52:00,
2013-04-12 12:02:00,67.0,55.0,30.02,West,271,5.0,8.0,65,0.00,,,0.00,,2013-04-12 09:02:00,
2013-04-12 12:11:00,67.0,55.0,30.02,West,271,5.0,8.0,65,0.00,,,0.00,,2013-04-12 09:11:00,
2013-04-12 12:21:00,67.0,54.0,30.02,West,262,4.0,6.0,64,0.00,,,0.00,,2013-04-12 09:21:00,
2013-04-12 12:32:00,67.0,55.0,30.01,West,279,5.0,7.0,65,0.00,,,0.00,,2013-04-12 09:32:00,
2013-04-12 12:42:00,67.0,55.0,30.01,West,279,5.0,7.0,65,0.00,,,0.00,,2013-04-12 09:42:00,
2013-04-12 12:52:00,68.0,55.0,30.01,NW,313,3.0,6.0,64,0.00,,,0.00,,2013-04-12 09:52:00,
2013-04-12 13:02:00,68.0,55.0,30.01,NW,313,3.0,6.0,64,0.00,,,0.00,,2013-04-12 10:02:00,
2013-04-12 13:12:00,66.0,55.0,30.01,WNW,292,5.0,8.0,68,0.00,,,0.00,,2013-04-12 10:12:00,
2013-04-12 13:22:00,66.0,55.0,30.01,WNW,292,5.0,8.0,68,0.00,,,0.00,,2013-04-12 10:22:00,
2013-04-12 13:33:00,67.0,56.0,30.01,WSW,248,4.0,7.0,67,0.00,,,0.00,,2013-04-12 10:33:00,
2013-04-12 13:42:00,67.0,56.0,30.01,WSW,248,4.0,7.0,67,0.00,,,0.00,,2013-04-12 10:42:00,
2013-04-12 13:52:00,68.0,57.0,30.01,WSW,258,4.0,6.0,68,0.00,,,0.00,,2013-04-12 10:52:00,
2013-04-12 14:02:00,67.0,57.0,30.01,WSW,256,5.0,8.0,71,0.00,,,0.00,,2013-04-12 11:02:00,
2013-04-12 14:12:00,67.0,57.0,30.01,WSW,256,5.0,8.0,71,0.00,,,0.00,,2013-04-12 11:12:00,
2013-04-12 14:22:00,68.0,57.0,30.01,West,270,5.0,6.0,67,0.00,,,0.00,,2013-04-12 11:22:00,
2013-04-12 14:32:00,67.0,56.0,30.01,WSW,251,5.0,8.0,68,0.00,,,0.00,,2013-04-12 11:32:00,
2013-04-12 14:42:00,67.0,56.0,30.01,WSW,251,5.0,8.0,68,0.00,,,0.00,,2013-04-12 11:42:00,
2013-04-12 14:52:00,68.0,56.0,30.01,SW,214,5.0,7.0,66,0.00,,,0.00,,2013-04-12 11:52:00,
2013-04-12 15:02:00,70.0,58.0,30.00,West,267,3.0,6.0,65,0.00,,,0.00,,2013-04-12 12:02:00,
2013-04-12 15:12:00,70.0,58.0,30.00,West,267,3.0,6.0,65,0.00,,,0.00,,2013-04-12 12:12:00,
2013-04-12 15:21:00,69.0,55.0,30.00,West,270,6.0,9.0,60,0.00,,,0.00,,2013-04-12 12:21:00,
2013-04-12 15:32:00,69.0,54.0,29.99,WNW,284,6.0,9.0,59,0.00,,,0.00,,2013-04-12 12:32:00,
2013-04-12 15:42:00,69.0,54.0,29.99,WNW,284,6.0,9.0,59,0.00,,,0.00,,2013-04-12 12:42:00,
2013-04-12 15:52:00,71.0,57.0,30.00,West,270,3.0,7.0,62,0.00,,,0.00,,2013-04-12 12:52:00,
2013-04-12 16:02:00,70.0,54.0,29.99,West,272,7.0,9.0,57,0.00,,,0.00,,2013-04-12 13:02:00,
2013-04-12 16:21:00,68.0,55.0,29.99,West,277,9.0,12.0,64,0.00,,,0.00,,2013-04-12 13:21:00,
2013-04-12 16:32:00,70.0,57.0,29.99,NNW,348,5.0,9.0,63,0.00,,,0.00,,2013-04-12 13:32:00,
2013-04-12 16:42:00,70.0,57.0,29.99,NNW,348,5.0,9.0,63,0.00,,,0.00,,2013-04-12 13:42:00,
2013-04-12 16:52:00,70.0,57.0,29.99,West,263,7.0,12.0,64,0.00,,,0.00,,2013-04-12 13:52:00,
2013-04-12 17:02:00,69.0,59.0,29.98,WNW,300,7.0,10.0,71,0.00,,,0.00,,2013-04-12 14:02:00,
2013-04-12 17:12:00,69.0,59.0,29.98,WNW,300,7.0,10.0,71,0.00,,,0.00,,2013-04-12 14:12:00,
2013-04-12 17:21:00,70.0,59.0,29.98,WNW,291,8.0,11.0,68,0.00,,,0.00,,2013-04-12 14:21:00,
2013-04-12 17:32:00,71.0,58.0,29.98,WSW,237,4.0,9.0,64,0.00,,,0.00,,2013-04-12 14:32:00,
2013-04-12 17:41:00,71.0,58.0,29.98,WSW,237,4.0,9.0,64,0.00,,,0.00,,2013-04-12 14:41:00,
2013-04-12 17:52:00,71.0,55.0,29.98,South,184,4.0,6.0,57,0.00,,,0.00,,2013-04-12 14:52:00,
2013-04-12 18:02:00,72.0,56.0,29.98,West,272,5.0,9.0,57,0.00,,,0.00,,2013-04-12 15:02:00,
2013-04-12 18:11:00,72.0,56.0,29.98,West,272,5.0,9.0,57,0.00,,,0.00,,2013-04-12 15:11:00,
2013-04-12 18:22:00,72.0,54.0,29.98,WSW,254,5.0,6.0,53,0.00,,,0.00,,2013-04-12 15:22:00,
2013-04-12 18:33:00,72.0,53.0,29.98,WNW,291,4.0,6.0,51,0.00,,,0.00,,2013-04-12 15:33:00,
2013-04-12 18:42:00,72.0,53.0,29.98,WNW,291,4.0,6.0,51,0.00,,,0.00,,2013-04-12 15:42:00,
2013-04-12 18:52:00,72.0,51.0,29.99,NNE,17,4.0,7.0,48,0.00,,,0.00,,2013-04-12 15:52:00,
2013-04-12 19:03:00,71.0,52.0,29.99,NW,321,4.0,7.0,52,0.00,,,0.00,,2013-04-12 16:03:00,
2013-04-12 19:12:00,71.0,52.0,29.99,NW,321,4.0,7.0,52,0.00,,,0.00,,2013-04-12 16:12:00,
2013-04-12 19:22:00,71.0,52.0,29.99,SW,229,4.0,5.0,52,0.00,,,0.00,,2013-04-12 16:22:00,
2013-04-12 19:33:00,69.0,50.0,29.99,West,270,2.0,6.0,50,0.00,,,0.00,,2013-04-12 16:33:00,
2013-04-12 19:42:00,69.0,50.0,29.99,West,270,2.0,6.0,50,0.00,,,0.00,,2013-04-12 16:42:00,
2013-04-12 19:52:00,67.0,47.0,29.99,West,273,2.0,4.0,49,0.00,,,0.00,,2013-04-12 16:52:00,
2013-04-12 20:02:00,67.0,47.0,29.99,NW,309,3.0,5.0,49,0.00,,,0.00,,2013-04-12 17:02:00,
2013-04-12 20:12:00,67.0,47.0,29.99,NW,309,3.0,5.0,49,0.00,,,0.00,,2013-04-12 17:12:00,
2013-04-12 20:22:00,66.0,48.0,29.99,ESE,106,2.0,3.0,52,0.00,,,0.00,,2013-04-12 17:22:00,
2013-04-12 20:32:00,66.0,50.0,30.00,ESE,114,2.0,4.0,56,0.00,,,0.00,,2013-04-12 17:32:00,
2013-04-12 20:43:00,66.0,50.0,30.00,ESE,114,2.0,4.0,56,0.00,,,0.00,,2013-04-12 17:43:00,
2013-04-12 20:54:00,65.0,49.0,30.00,NE,36,2.0,4.0,57,0.00,,,0.00,,2013-04-12 17:54:00,
2013-04-12 21:06:00,65.0,49.0,30.00,ESE,103,1.0,3.0,56,0.00,,,0.00,,2013-04-12 18:06:00,
2013-04-12 21:12:00,65.0,49.0,30.00,ESE,103,1.0,3.0,56,0.00,,,0.00,,2013-04-12 18:12:00,
2013-04-12 21:24:00,65.0,49.0,30.01,NW,311,1.0,3.0,56,0.00,,,0.00,,2013-04-12 18:24:00,
2013-04-12 22:32:00,65.0,49.0,30.02,ESE,108,0.0,1.0,56,0.00,,,0.00,,2013-04-12 19:32:00,
2013-04-12 22:42:00,65.0,49.0,30.02,ESE,108,0.0,1.0,56,0.00,,,0.00,,2013-04-12 19:42:00,
2013-04-12 22:52:00,65.0,49.0,30.02,ENE,76,0.0,2.0,56,0.00,,,0.00,,2013-04-12 19:52:00,
2013-04-12 23:02:00,65.0,49.0,30.02,NNE,33,0.0,0.0,56,0.00,,,0.00,,2013-04-12 20:02:00,
2013-04-12 23:11:00,65.0,49.0,30.02,NNE,33,0.0,0.0,56,0.00,,,0.00,,2013-04-12 20:11:00,
2013-04-12 23:21:00,65.0,48.0,30.02,North,1,0.0,3.0,55,0.00,,,0.00,,2013-04-12 20:21:00,
2013-04-12 23:32:00,64.0,47.0,30.03,WNW,290,0.0,1.0,55,0.00,,,0.00,,2013-04-12 20:32:00,
2013-04-12 23:42:00,64.0,47.0,30.03,WNW,290,0.0,1.0,55,0.00,,,0.00,,2013-04-12 20:42:00,
2013-04-12 23:52:00,64.0,48.0,30.03,North,0,0.0,0.0,56,0.00,,,0.00,,2013-04-12 20:52:00,